Time;durP1;ratioP1;P1;durP2;ratioP2;P2;SDS_P1;SDS_P2;PMS_P1;PMS_P2;Temp;Humidity;BMP_temperature;BMP_pressure;BME280_temperature;BME280_humidity;BME280_pressure;Samples;Min_cycle;Max_cycle;Signal;HPM_P1;HPM_P2
2022/08/11 00:01:45;;;;;;;2.00;1.80;;;;;;;20.36;36.72;99446.59;5114766;27;41112;-75
2022/08/11 00:04:15;;;;;;;2.07;1.53;;;;;;;20.22;36.88;99428.19;5112413;27;41294;-74
2022/08/11 00:06:46;;;;;;;2.37;1.97;;;;;;;20.27;36.67;99442.91;5114864;27;40785;-75
2022/08/11 00:09:18;;;;;;;3.43;1.70;;;;;;;20.23;37.18;99446.88;5130660;27;43845;-73
2022/08/11 00:11:48;;;;;;;2.20;2.00;;;;;;;20.20;37.68;99439.06;5114849;27;41059;-73
2022/08/11 00:14:19;;;;;;;2.00;1.90;;;;;;;20.17;37.49;99446.56;5133718;27;41002;-74
2022/08/11 00:16:55;;;;;;;2.23;2.03;;;;;;;20.16;37.44;99440.34;5133390;27;41641;-73
2022/08/11 00:19:27;;;;;;;2.00;1.80;;;;;;;20.13;37.70;99446.03;5114755;27;42971;-74
2022/08/11 00:21:57;;;;;;;2.10;1.90;;;;;;;20.11;37.67;99441.78;5115035;27;42219;-75
2022/08/11 00:24:25;;;;;;;1.90;1.80;;;;;;;20.10;37.80;99443.63;5133447;27;39971;-73
2022/08/11 00:26:54;;;;;;;2.40;1.93;;;;;;;20.01;37.33;99431.88;5114750;27;41784;-73
2022/08/11 00:29:22;;;;;;;1.43;1.33;;;;;;;20.04;37.67;99436.09;5114974;27;42709;-74
2022/08/11 00:31:52;;;;;;;1.97;1.70;;;;;;;20.01;37.79;99441.78;5116138;27;42976;-75
2022/08/11 00:34:23;;;;;;;2.23;1.50;;;;;;;19.92;37.63;99432.69;5133110;27;39980;-74
2022/08/11 00:36:55;;;;;;;2.03;1.90;;;;;;;19.96;37.54;99446.72;5114876;27;41401;-74
2022/08/11 00:39:26;;;;;;;3.03;2.07;;;;;;;19.93;38.03;99445.16;5111745;27;43478;-74
2022/08/11 00:42:11;;;;;;;1.80;1.70;;;;;;;19.89;37.99;99440.22;5114327;27;43226;-74
2022/08/11 00:44:55;;;;;;;1.97;1.80;;;;;;;19.89;38.28;99437.53;5115003;27;39474;-75
2022/08/11 00:47:35;;;;;;;1.73;1.63;;;;;;;19.79;38.29;99431.28;5131795;27;42516;-74
2022/08/11 00:50:17;;;;;;;2.20;1.80;;;;;;;19.67;38.58;99411.75;5114906;27;41735;-75
2022/08/11 00:53:02;;;;;;;2.37;2.20;;;;;;;19.80;38.83;99433.81;5113478;27;42258;-73
2022/08/11 00:56:09;;;;;;;2.33;1.83;;;;;;;19.79;39.37;99431.28;5129807;27;40752;-75
2022/08/11 00:59:07;;;;;;;2.33;2.13;;;;;;;19.75;39.52;99425.34;5114118;27;42132;-74
2022/08/11 01:02:04;;;;;;;2.20;2.00;;;;;;;19.72;39.54;99428.31;5123767;27;42889;-74
2022/08/11 01:05:13;;;;;;;2.40;2.20;;;;;;;19.66;39.16;99421.66;5121375;27;43159;-73
2022/08/11 01:08:30;;;;;;;2.43;2.23;;;;;;;19.67;39.06;99430.56;5130440;27;39924;-73
2022/08/11 01:11:18;;;;;;;2.67;2.10;;;;;;;19.63;40.03;99432.69;5110265;27;42771;-75
2022/08/11 01:14:16;;;;;;;2.37;2.03;;;;;;;19.55;39.57;99435.22;5114041;27;43610;-75
2022/08/11 01:17:09;;;;;;;2.13;2.03;;;;;;;19.55;39.28;99440.56;5132151;27;42145;-73
2022/08/11 01:20:09;;;;;;;2.20;2.10;;;;;;;19.51;39.88;99433.81;5132529;27;40787;-73
2022/08/11 01:22:59;;;;;;;2.30;2.10;;;;;;;19.46;39.63;99430.63;5121122;27;42527;-74
2022/08/11 01:26:00;;;;;;;2.43;1.93;;;;;;;19.42;40.30;99437.25;5110153;27;42544;-75
2022/08/11 01:29:24;;;;;;;3.13;1.97;;;;;;;19.36;39.86;99446.72;5111239;27;41907;-73
2022/08/11 01:32:29;;;;;;;2.37;2.00;;;;;;;19.30;39.78;99451.78;5127707;27;40474;-73
2022/08/11 01:35:30;;;;;;;2.33;2.13;;;;;;;19.25;39.83;99448.69;5131668;27;43025;-75
2022/08/11 01:38:39;;;;;;;2.43;2.23;;;;;;;19.19;40.19;99443.84;5116654;27;42440;-76
2022/08/11 01:45:12;;;;;;;2.00;1.50;;;;;;;19.05;40.08;99436.16;5117270;27;41885;-73
2022/08/11 01:48:01;;;;;;;4.07;2.10;;;;;;;18.99;40.30;99435.72;5014690;28;42655;-73
2022/08/11 01:50:46;;;;;;;5.57;2.13;;;;;;;18.94;40.67;99421.00;5034183;28;43749;-74
2022/08/11 01:53:28;;;;;;;26.77;4.03;;;;;;;18.92;40.50;99429.19;5091646;28;42308;-75
2022/08/11 01:56:10;;;;;;;2.23;1.80;;;;;;;18.68;40.38;99399.13;5104652;27;41760;-74
2022/08/11 01:58:45;;;;;;;2.00;1.80;;;;;;;18.74;40.55;99413.84;5132688;27;42740;-75
2022/08/11 02:01:36;;;;;;;2.87;2.00;;;;;;;18.81;40.47;99431.94;5130568;27;42716;-75
2022/08/11 02:04:17;;;;;;;2.67;2.13;;;;;;;18.77;40.89;99427.84;5120084;27;42800;-76
2022/08/11 02:06:58;;;;;;;2.17;1.90;;;;;;;18.75;40.66;99429.81;5117235;27;39022;-74
2022/08/11 02:11:29;;;;;;;2.30;2.10;;;;;;;18.73;40.77;99431.78;5132362;27;41737;-75
2022/08/11 02:12:53;;;;;;;3.43;2.10;;;;;;;18.64;40.90;99435.28;5124235;27;43787;-76
2022/08/11 02:15:33;;;;;;;1.90;1.80;;;;;;;18.66;41.00;99441.38;5132522;27;42299;-74
2022/08/11 02:18:08;;;;;;;2.07;1.87;;;;;;;18.64;41.09;99429.91;5118499;27;40807;-75
2022/08/11 02:23:40;;;;;;;2.10;1.90;;;;;;;18.57;41.07;99426.00;5132270;27;42807;-75
2022/08/11 02:26:20;;;;;;;1.83;1.73;;;;;;;18.45;40.88;99411.81;5132228;27;42457;-74
2022/08/11 02:29:02;;;;;;;2.20;2.00;;;;;;;18.52;41.13;99428.25;5116876;27;38985;-74
2022/08/11 02:34:54;;;;;;;2.20;2.00;;;;;;;18.44;41.27;99420.00;5132098;27;42929;-74
2022/08/11 02:37:32;;;;;;;2.03;1.93;;;;;;;18.40;41.16;99418.56;5133564;27;42979;-75
2022/08/11 02:40:16;;;;;;;1.80;1.70;;;;;;;18.23;41.51;99396.72;5116512;27;40906;-73
2022/08/11 02:42:55;;;;;;;2.53;2.10;;;;;;;18.28;41.40;99410.59;5134103;27;41772;-73
2022/08/11 02:45:39;;;;;;;2.07;1.87;;;;;;;18.27;41.28;99418.78;5099199;27;42750;-76
2022/08/11 02:51:18;;;;;;;2.57;2.00;;;;;;;18.22;41.61;99418.31;5116160;27;39295;-73
2022/08/11 02:53:54;;;;;;;2.47;2.27;;;;;;;18.19;41.83;99426.59;5115955;27;42128;-72
2022/08/11 02:56:37;;;;;;;2.20;2.00;;;;;;;18.07;42.42;99400.81;5131722;27;42540;-74
2022/08/11 03:02:08;;;;;;;2.23;1.83;;;;;;;18.11;42.02;99419.22;5083648;27;39316;-73
2022/08/11 03:04:47;;;;;;;2.53;1.90;;;;;;;18.08;41.89;99426.66;5131432;27;41735;-75
2022/08/11 03:07:23;;;;;;;2.40;2.20;;;;;;;18.05;42.01;99424.25;5132880;27;42752;-73
2022/08/11 03:09:58;;;;;;;1.90;1.80;;;;;;;17.93;42.10;99415.38;5114573;27;43419;-74
2022/08/11 03:18:34;;;;;;;3.37;2.03;;;;;;;17.84;42.36;99416.16;5114666;27;42165;-74
2022/08/11 03:21:10;;;;;;;2.77;2.23;;;;;;;17.80;42.76;99420.09;5112467;27;41946;-76
2022/08/11 03:23:44;;;;;;;2.73;1.97;;;;;;;17.80;42.50;99430.81;5131346;27;40170;-73
2022/08/11 03:26:23;;;;;;;2.20;2.00;;;;;;;17.77;42.52;99420.34;5131261;27;42659;-73
2022/08/11 03:29:04;;;;;;;2.20;2.00;;;;;;;17.73;42.70;99424.25;5115588;27;42610;-75
2022/08/11 03:31:37;;;;;;;2.60;2.27;;;;;;;17.71;43.18;99423.53;5131418;27;43238;-72
2022/08/11 03:34:11;;;;;;;2.57;2.37;;;;;;;17.65;43.06;99416.00;5131222;27;40668;-75
2022/08/11 03:37:06;;;;;;;2.00;1.80;;;;;;;17.60;43.34;99409.16;5131767;27;42543;-73
2022/08/11 03:39:46;;;;;;;3.93;2.23;;;;;;;17.63;43.26;99417.91;5130961;27;42532;-74
2022/08/11 03:42:22;;;;;;;2.00;1.87;;;;;;;17.58;43.48;99410.25;5115352;27;43947;-73
2022/08/11 03:45:01;;;;;;;3.10;2.30;;;;;;;17.59;43.58;99418.16;5115185;27;39939;-76
2022/08/11 03:47:49;;;;;;;1.87;1.77;;;;;;;17.44;43.53;99392.63;5098281;27;42402;-75
2022/08/11 03:50:32;;;;;;;3.63;2.57;;;;;;;17.55;44.30;99423.94;5130911;27;42727;-72
2022/08/11 03:53:14;;;;;;;2.30;2.10;;;;;;;17.53;44.17;99413.34;5114729;27;43004;-75
2022/08/11 03:56:13;;;;;;;3.30;2.57;;;;;;;17.52;45.47;99417.00;5115408;27;41150;-72
2022/08/11 03:59:11;;;;;;;2.60;2.40;;;;;;;17.51;44.70;99415.28;5112158;27;42621;-74
2022/08/11 04:02:02;;;;;;;4.53;2.50;;;;;;;17.48;44.30;99415.53;5131340;27;42782;-74
2022/08/11 04:05:17;;;;;;;3.13;2.73;;;;;;;17.47;44.37;99419.19;5129853;27;43158;-73
2022/08/11 04:08:20;;;;;;;2.63;2.40;;;;;;;17.45;44.27;99430.97;5133174;27;40901;-74
2022/08/11 04:11:17;;;;;;;3.00;2.20;;;;;;;17.41;44.27;99425.06;5112315;27;41859;-74
2022/08/11 04:17:36;;;;;;;2.40;2.20;;;;;;;17.35;44.38;99430.88;5113701;27;42335;-73
2022/08/11 04:20:23;;;;;;;2.60;2.40;;;;;;;17.33;44.37;99434.66;5090239;27;40493;-73
2022/08/11 04:23:10;;;;;;;2.50;2.13;;;;;;;17.31;44.35;99429.44;5132487;27;42509;-74
2022/08/11 04:26:05;;;;;;;2.20;2.00;;;;;;;17.28;44.27;99429.69;5130056;27;42530;-73
2022/08/11 04:28:49;;;;;;;2.00;1.90;;;;;;;17.31;44.46;99428.59;5130087;27;43239;-73
2022/08/11 04:31:36;;;;;;;1.93;1.80;;;;;;;17.32;44.28;99436.47;5130436;27;41721;-75
2022/08/11 04:34:27;;;;;;;3.40;3.00;;;;;;;17.33;44.25;99432.84;5109855;28;42673;-73
2022/08/11 04:40:24;;;;;;;3.93;2.40;;;;;;;17.36;44.38;99427.25;5113112;28;43565;-75
2022/08/11 04:43:33;;;;;;;3.33;3.00;;;;;;;17.40;44.40;99428.69;5093915;28;39054;-73
2022/08/11 04:46:27;;;;;;;2.60;2.40;;;;;;;17.50;44.18;99435.00;5093949;28;40758;-74
2022/08/11 05:02:05;;;;;;;2.80;2.60;;;;;;;18.06;44.50;99432.13;5093737;28;41858;-75
2022/08/11 05:08:23;;;;;;;3.23;2.93;;;;;;;18.35;44.23;99439.56;5093410;28;41764;-74
2022/08/11 05:11:03;;;;;;;3.77;3.40;;;;;;;18.46;44.26;99437.66;5112305;28;41727;-75
2022/08/11 05:36:37;;;;;;;3.30;3.00;;;;;;;19.66;44.29;99464.63;5092701;28;44220;-72
2022/08/11 05:56:18;;;;;;;4.53;2.90;;;;;;;20.91;42.23;99469.13;5090309;28;41558;-71
2022/08/11 05:58:49;;;;;;;3.10;2.80;;;;;;;21.08;42.17;99460.28;5093529;28;42013;-75
2022/08/11 06:01:24;;;;;;;5.40;2.70;;;;;;;21.13;42.14;99452.63;5090827;28;43206;-75
2022/08/11 06:06:46;;;;;;;4.80;2.80;;;;;;;21.49;41.62;99475.19;5109315;28;42645;-72
2022/08/11 06:09:14;;;;;;;5.13;3.03;;;;;;;21.63;41.43;99470.28;5076459;28;41649;-75
2022/08/11 06:11:44;;;;;;;3.77;2.80;;;;;;;21.75;41.18;99480.72;5093503;28;43201;-74
2022/08/11 06:14:14;;;;;;;3.13;2.70;;;;;;;21.88;41.24;99481.16;5093563;28;40946;-75
2022/08/11 06:16:43;;;;;;;5.13;2.60;;;;;;;22.02;41.05;99481.66;5111567;28;41579;-75
2022/08/11 06:19:13;;;;;;;3.03;2.73;;;;;;;22.24;40.56;99481.22;5093194;28;42921;-73
2022/08/11 06:21:45;;;;;;;5.90;2.73;;;;;;;22.52;40.62;99496.31;5092788;28;42864;-73
2022/08/11 06:24:14;;;;;;;3.57;2.77;;;;;;;22.72;40.00;99490.72;5090530;28;41816;-75
2022/08/11 06:26:50;;;;;;;7.57;2.70;;;;;;;22.88;39.84;99482.75;5111532;28;41689;-75
2022/08/11 06:29:18;;;;;;;4.43;2.40;;;;;;;23.05;39.42;99487.25;5076459;28;42854;-74
2022/08/11 06:31:53;;;;;;;2.80;2.60;;;;;;;23.23;39.26;99489.91;5076285;28;42233;-75
2022/08/11 06:34:33;;;;;;;3.03;2.67;;;;;;;23.42;38.74;99494.22;5093289;28;39974;-74
2022/08/11 06:37:18;;;;;;;2.77;2.47;;;;;;;23.83;37.88;99493.38;5076347;28;40996;-75
2022/08/11 06:39:52;;;;;;;7.37;3.23;;;;;;;24.44;36.70;99481.34;5090217;27;42534;-74
2022/08/11 06:42:36;;;;;;;4.90;2.80;;;;;;;25.56;35.38;99496.72;5113340;28;43066;-75
2022/08/11 06:45:13;;;;;;;6.73;2.70;;;;;;;26.33;33.46;99511.28;5079820;28;38978;-75
2022/08/11 06:47:47;;;;;;;4.20;2.40;;;;;;;26.56;33.76;99503.97;5113618;28;42731;-74
2022/08/11 06:53:08;;;;;;;2.70;2.50;;;;;;;26.33;34.12;99503.13;5114130;28;43189;-74
2022/08/11 07:01:23;;;;;;;2.60;2.30;;;;;;;26.39;33.95;99502.41;5079089;28;41738;-74
2022/08/11 07:04:01;;;;;;;6.40;2.83;;;;;;;26.31;34.10;99505.19;5111542;28;42139;-75
2022/08/11 07:06:39;;;;;;;2.67;2.33;;;;;;;26.31;34.45;99499.75;5095930;28;38876;-72
2022/08/11 07:15:41;;;;;;;4.80;3.00;;;;;;;26.39;34.09;99497.81;5106185;28;41996;-74
2022/08/11 07:29:46;;;;;;;2.87;2.33;;;;;;;27.24;33.18;99503.00;5095789;28;39954;-74
2022/08/11 07:32:24;;;;;;;3.30;2.33;;;;;;;27.53;32.86;99507.59;5112665;28;42041;-74
2022/08/11 07:34:59;;;;;;;2.37;2.00;;;;;;;27.78;32.29;99510.88;5078912;28;43138;-75
2022/08/11 07:37:32;;;;;;;5.23;2.33;;;;;;;28.06;31.50;99506.41;5078545;28;42792;-76
2022/08/11 07:40:00;;;;;;;4.40;2.60;;;;;;;28.32;31.55;99530.38;5111012;28;40731;-75
2022/08/11 07:42:34;;;;;;;3.93;2.30;;;;;;;28.40;31.20;99513.94;5113778;28;41703;-74
2022/08/11 07:53:27;;;;;;;4.10;2.10;;;;;;;29.04;29.49;99513.91;5112493;27;42248;-72
2022/08/11 07:55:57;;;;;;;2.27;2.07;;;;;;;29.28;29.12;99518.03;5094859;28;42781;-73
2022/08/11 08:17:57;;;;;;;3.67;2.40;;;;;;;31.60;25.73;99523.00;5112173;28;42433;-73
2022/08/11 08:20:29;;;;;;;3.47;1.93;;;;;;;32.06;25.97;99534.63;5094854;28;42427;-75
2022/08/11 08:23:00;;;;;;;2.50;2.30;;;;;;;32.34;25.21;99537.06;5094742;28;41098;-75
2022/08/11 08:25:31;;;;;;;3.00;2.30;;;;;;;32.65;25.27;99527.13;5094825;28;40897;-73
2022/08/11 08:28:01;;;;;;;2.30;2.10;;;;;;;33.00;25.00;99524.81;5077132;28;44159;-75
2022/08/11 08:33:26;;;;;;;2.30;2.10;;;;;;;33.25;23.82;99527.56;5076219;28;39940;-74
2022/08/11 08:36:11;;;;;;;3.13;2.43;;;;;;;33.37;23.78;99542.22;5113167;28;41167;-74
2022/08/11 08:38:41;;;;;;;2.90;2.17;;;;;;;34.02;22.73;99532.38;5094737;28;44507;-73
2022/08/11 08:41:10;;;;;;;3.60;2.40;;;;;;;34.64;22.31;99537.69;5112828;28;42281;-75
2022/08/11 08:43:39;;;;;;;2.70;2.50;;;;;;;35.19;21.52;99530.88;5113428;28;40018;-75
2022/08/11 08:46:10;;;;;;;3.33;2.40;;;;;;;36.40;20.60;99542.91;5113028;28;42817;-73
2022/08/11 08:48:39;;;;;;;3.00;2.30;;;;;;;37.98;19.33;99538.84;5092027;28;43230;-73
2022/08/11 08:54:03;;;;;;;2.00;1.90;;;;;;;40.20;17.11;99555.69;5094876;28;38917;-73
2022/08/11 08:56:34;;;;;;;2.63;1.92;;;;;;;40.74;15.96;99558.09;5092464;28;42810;-77
2022/08/11 08:59:03;;;;;;;2.33;1.83;;;;;;;40.76;15.88;99571.72;5094570;28;41676;-74
2022/08/11 09:01:42;;;;;;;2.20;2.00;;;;;;;40.48;15.64;99565.53;5077367;28;41180;-75
2022/08/11 09:04:10;;;;;;;2.20;2.10;;;;;;;40.37;15.46;99565.78;5094578;28;41425;-76
2022/08/11 09:06:41;;;;;;;2.42;2.20;;;;;;;40.26;15.64;99558.50;5077285;28;43342;-75
2022/08/11 09:09:10;;;;;;;2.50;2.17;;;;;;;40.46;15.42;99566.91;5109852;28;42723;-74
2022/08/11 09:11:53;;;;;;;2.08;1.98;;;;;;;40.59;15.29;99544.16;5112638;28;42987;-73
2022/08/11 09:14:23;;;;;;;2.47;2.30;;;;;;;40.94;15.19;99562.84;5109808;28;40017;-74
2022/08/11 09:16:52;;;;;;;2.85;2.60;;;;;;;40.74;14.70;99577.56;5093401;28;40670;-77
2022/08/11 09:19:21;;;;;;;2.80;2.60;;;;;;;41.02;14.21;99576.19;5093910;28;42814;-74
2022/08/11 09:26:58;;;;;;;2.95;2.65;;;;;;;40.73;14.46;99567.56;5094293;28;43540;-76
2022/08/11 09:27:27;;;;;;;2.33;2.15;;;;;;;41.17;14.30;99564.28;5076672;28;41985;-75
2022/08/11 09:29:56;;;;;;;3.20;2.10;;;;;;;41.11;14.63;99570.91;5093822;28;41738;-73
2022/08/11 09:32:25;;;;;;;6.30;2.72;;;;;;;41.84;14.12;99568.59;5112220;28;43212;-76
2022/08/11 09:34:54;;;;;;;4.18;2.30;;;;;;;42.40;13.45;99566.47;5112279;28;40132;-75
2022/08/11 09:40:30;;;;;;;2.58;2.20;;;;;;;42.10;13.71;99561.84;5093852;28;43620;-74
2022/08/11 09:45:50;;;;;;;2.67;2.30;;;;;;;41.05;14.38;99566.47;5076891;28;39922;-75
2022/08/11 09:48:19;;;;;;;2.67;2.30;;;;;;;40.47;15.12;99554.69;5111920;28;42735;-75
2022/08/11 09:50:49;;;;;;;2.15;2.03;;;;;;;40.10;15.19;99560.38;5112004;28;42651;-75
2022/08/11 09:53:21;;;;;;;2.60;2.40;;;;;;;39.56;15.52;99548.72;5093685;28;42003;-75
2022/08/11 09:55:50;;;;;;;2.45;2.35;;;;;;;39.29;15.99;99537.72;5094012;28;40243;-73
2022/08/11 09:58:18;;;;;;;3.53;2.35;;;;;;;39.69;15.74;99543.50;5111780;28;42445;-74
2022/08/11 10:00:49;;;;;;;2.40;2.20;;;;;;;39.97;15.33;99533.97;5093417;28;43086;-73
2022/08/11 10:03:21;;;;;;;2.63;2.42;;;;;;;39.93;15.19;99541.19;5076445;28;42644;-73
2022/08/11 10:08:40;;;;;;;3.60;2.53;;;;;;;38.99;15.96;99543.84;5076748;28;41982;-72
2022/08/11 10:11:11;;;;;;;5.68;2.30;;;;;;;38.51;16.64;99525.34;5090097;28;42643;-74
2022/08/11 10:16:28;;;;;;;2.73;2.00;;;;;;;38.35;17.00;99519.66;5077552;28;38587;-74
2022/08/11 10:19:01;;;;;;;2.40;2.30;;;;;;;38.33;16.56;99512.72;5096372;28;42190;-74
2022/08/11 10:21:39;;;;;;;3.57;2.50;;;;;;;37.97;17.17;99512.28;5094223;28;43735;-75
2022/08/11 10:26:59;;;;;;;2.50;2.17;;;;;;;38.16;17.16;99490.69;5094774;28;39707;-74
2022/08/11 10:35:07;;;;;;;2.30;2.10;;;;;;;39.05;15.82;99501.25;5096996;28;41092;-73
2022/08/11 10:37:37;;;;;;;2.20;2.00;;;;;;;39.33;15.05;99506.41;5114627;28;40896;-77
2022/08/11 10:40:10;;;;;;;2.60;2.20;;;;;;;40.29;14.20;99510.81;5096736;28;41997;-73
2022/08/11 10:48:10;;;;;;;2.28;2.08;;;;;;;40.92;13.86;99506.72;5096229;28;40842;-74
2022/08/11 10:58:58;;;;;;;4.75;1.95;;;;;;;40.88;13.75;99500.88;5111622;28;39972;-74
2022/08/11 11:01:28;;;;;;;2.80;1.90;;;;;;;40.82;13.53;99496.44;5114340;28;41888;-73
2022/08/11 11:03:58;;;;;;;1.98;1.77;;;;;;;41.11;13.57;99493.06;5096238;28;42901;-73
2022/08/11 11:06:33;;;;;;;2.30;2.10;;;;;;;41.09;12.96;99489.75;5093284;28;42893;-75
2022/08/11 11:09:04;;;;;;;2.22;2.00;;;;;;;41.08;13.55;99486.13;5096531;28;38926;-74
2022/08/11 11:20:06;;;;;;;1.90;1.80;;;;;;;42.52;12.38;99490.91;5078792;28;39562;-74
2022/08/11 11:22:40;;;;;;;3.67;1.80;;;;;;;43.60;11.43;99484.91;5112904;28;41825;-74
2022/08/11 11:25:21;;;;;;;3.00;2.40;;;;;;;44.46;10.52;99484.88;5095397;28;44670;-76
2022/08/11 11:28:25;;;;;;;1.85;1.60;;;;;;;44.88;11.08;99487.56;5093981;28;43483;-74
2022/08/11 11:31:07;;;;;;;2.97;1.80;;;;;;;44.67;11.46;99486.19;5111019;28;40024;-75
2022/08/11 11:33:50;;;;;;;5.18;1.73;;;;;;;44.01;11.74;99478.84;5110930;28;41686;-76
2022/08/11 11:36:26;;;;;;;2.10;1.73;;;;;;;43.56;11.28;99472.63;5095486;28;43125;-77
2022/08/11 11:38:55;;;;;;;1.73;1.63;;;;;;;43.28;11.70;99468.78;5094857;28;42459;-73
2022/08/11 11:41:26;;;;;;;2.95;1.83;;;;;;;43.10;12.12;99457.53;5094715;28;39850;-74
2022/08/11 11:43:57;;;;;;;1.88;1.77;;;;;;;42.79;12.07;99463.38;5110870;28;41615;-75
2022/08/11 11:46:27;;;;;;;2.80;2.00;;;;;;;42.41;12.18;99419.69;5110891;28;42690;-76
2022/08/11 11:48:56;;;;;;;2.28;1.38;;;;;;;42.67;12.32;99454.53;5113607;28;42197;-76
2022/08/11 11:51:25;;;;;;;1.60;1.50;;;;;;;42.91;12.11;99452.69;5113433;28;40458;-75
2022/08/11 11:53:53;;;;;;;1.65;1.55;;;;;;;43.22;12.11;99446.81;5113180;28;42772;-76
2022/08/11 11:56:24;;;;;;;1.98;1.88;;;;;;;43.66;11.88;99447.41;5095299;28;43747;-75
2022/08/11 12:01:42;;;;;;;1.77;1.67;;;;;;;44.68;11.53;99431.97;5095105;28;39352;-73
2022/08/11 12:04:11;;;;;;;3.35;2.00;;;;;;;45.50;10.90;99436.91;5091860;28;42761;-75
2022/08/11 12:06:41;;;;;;;1.70;1.60;;;;;;;46.35;10.61;99425.78;5113016;28;42477;-74
2022/08/11 12:09:14;;;;;;;2.35;2.10;;;;;;;47.95;10.35;99424.75;5078238;28;43474;-74
2022/08/11 12:14:27;;;;;;;1.98;1.88;;;;;;;49.60;8.79;99435.38;5110479;28;41757;-77
2022/08/11 12:16:59;;;;;;;1.80;1.70;;;;;;;50.32;8.34;99437.06;5094638;28;41610;-77
2022/08/11 12:19:28;;;;;;;3.25;1.70;;;;;;;50.72;7.72;99433.69;5094829;28;41144;-74
2022/08/11 12:27:29;;;;;;;1.67;1.58;;;;;;;51.83;7.79;99411.69;5093624;28;42747;-74
2022/08/11 12:30:00;;;;;;;1.55;1.45;;;;;;;52.42;7.36;99413.09;5112916;28;42871;-76
2022/08/11 12:32:33;;;;;;;1.75;1.65;;;;;;;52.61;7.09;99411.25;5077725;28;40807;-73
2022/08/11 12:35:01;;;;;;;1.77;1.67;;;;;;;52.75;6.97;99397.50;5094712;28;40624;-75
2022/08/11 12:37:32;;;;;;;2.17;1.45;;;;;;;53.04;6.65;99401.09;5094341;28;44037;-75
2022/08/11 12:45:36;;;;;;;2.10;1.92;;;;;;;53.08;6.94;99387.84;5091567;28;42427;-76
2022/08/11 12:53:55;;;;;;;1.77;1.60;;;;;;;52.87;6.52;99375.94;5094225;28;40025;-76
2022/08/11 13:04:58;;;;;;;2.10;2.00;;;;;;;53.21;6.35;99366.75;5077408;28;40182;-77
2022/08/11 13:07:27;;;;;;;1.48;1.38;;;;;;;52.64;6.79;99355.97;5093485;28;42261;-76
2022/08/11 13:09:57;;;;;;;2.00;1.42;;;;;;;52.65;6.75;99352.75;5077119;28;41587;-75
2022/08/11 13:15:14;;;;;;;5.28;1.80;;;;;;;52.91;7.01;99334.44;5091307;28;40718;-76
2022/08/11 13:17:46;;;;;;;3.38;1.92;;;;;;;52.95;6.90;99346.66;5094603;28;20578;-76
2022/08/11 13:20:19;;;;;;;3.08;1.65;;;;;;;52.52;6.70;99339.84;5094118;28;42668;-77
2022/08/11 13:22:49;;;;;;;1.42;1.33;;;;;;;52.19;6.86;99344.94;5076651;28;42312;-77
2022/08/11 13:25:19;;;;;;;1.60;1.50;;;;;;;52.21;6.56;99348.22;5090961;28;42223;-78
2022/08/11 13:27:49;;;;;;;1.70;1.60;;;;;;;52.07;6.75;99337.34;5093781;28;42137;-77
2022/08/11 13:33:06;;;;;;;1.80;1.70;;;;;;;52.16;6.73;99337.19;5111521;28;42338;-77
2022/08/11 13:35:36;;;;;;;1.70;1.60;;;;;;;51.82;6.96;99328.09;5093787;28;40299;-76
2022/08/11 13:38:05;;;;;;;3.38;1.65;;;;;;;51.12;7.14;99323.84;5076383;28;42718;-77
2022/08/11 13:40:34;;;;;;;1.85;1.70;;;;;;;50.54;7.34;99328.69;5093723;28;42700;-76
2022/08/11 13:43:02;;;;;;;1.98;1.65;;;;;;;50.48;7.25;99322.44;5111844;28;42630;-76
2022/08/11 13:45:30;;;;;;;1.73;1.63;;;;;;;50.08;7.37;99329.84;5093980;28;39558;-76
2022/08/11 13:48:00;;;;;;;4.97;1.98;;;;;;;49.97;7.31;99324.59;5093192;28;40840;-77
2022/08/11 13:53:12;;;;;;;1.83;1.73;;;;;;;49.77;7.52;99319.78;5075505;28;42666;-77
2022/08/11 13:55:41;;;;;;;1.35;1.25;;;;;;;49.56;7.30;99302.09;5112185;28;40027;-78
2022/08/11 13:58:10;;;;;;;2.35;1.55;;;;;;;49.21;7.42;99302.28;5093219;28;42865;-77
2022/08/11 14:00:38;;;;;;;1.90;1.80;;;;;;;48.80;8.21;99302.16;5076444;28;41671;-76
2022/08/11 14:03:11;;;;;;;2.00;1.77;;;;;;;48.52;7.82;99296.13;5093008;28;41611;-76
2022/08/11 14:05:43;;;;;;;2.15;1.85;;;;;;;48.07;8.11;99290.91;5108666;28;40775;-77
2022/08/11 14:08:17;;;;;;;2.25;1.80;;;;;;;47.74;8.06;99284.16;5092887;28;42110;-78
2022/08/11 14:13:36;;;;;;;1.73;1.63;;;;;;;47.50;8.46;99287.44;5108535;28;42684;-77
2022/08/11 14:13:37;;;;;;;1.70;1.60;;;;;;;47.11;8.53;99283.53;5107115;28;42892;-78
2022/08/11 14:16:11;;;;;;;2.55;1.90;;;;;;;46.53;8.78;99274.53;5092813;28;40766;-77
2022/08/11 14:18:45;;;;;;;1.63;1.52;;;;;;;45.93;9.26;99277.78;5091776;28;43186;-77
2022/08/11 14:24:04;;;;;;;3.15;1.75;;;;;;;45.60;9.71;99269.63;5090089;28;42826;-76
2022/08/11 14:26:37;;;;;;;1.90;1.80;;;;;;;45.42;9.13;99259.38;5108646;28;40089;-76
2022/08/11 14:29:09;;;;;;;2.03;1.80;;;;;;;45.39;9.72;99260.81;5076003;28;40449;-77
2022/08/11 14:31:40;;;;;;;1.80;1.70;;;;;;;45.26;9.95;99255.25;5075987;28;42072;-76
2022/08/11 14:34:13;;;;;;;1.95;1.70;;;;;;;45.29;9.45;99277.84;5110364;28;42370;-77
2022/08/11 14:36:45;;;;;;;1.50;1.40;;;;;;;45.08;8.99;99257.88;5076063;28;40543;-76
2022/08/11 14:39:17;;;;;;;1.80;1.70;;;;;;;44.38;9.12;99244.22;5075772;28;40761;-77
2022/08/11 14:47:22;;;;;;;1.52;1.42;;;;;;;42.48;10.47;99253.06;5109244;28;40908;-77
2022/08/11 14:49:52;;;;;;;1.70;1.60;;;;;;;41.99;10.70;99248.50;5110920;28;42774;-77
2022/08/11 14:52:20;;;;;;;1.85;1.75;;;;;;;41.59;11.06;99244.91;5075836;28;42755;-76
2022/08/11 14:57:39;;;;;;;2.13;2.03;;;;;;;41.10;11.79;99241.28;5092726;28;40225;-76
2022/08/11 15:00:11;;;;;;;1.90;1.80;;;;;;;40.90;11.72;99250.53;5075867;28;41954;-75
2022/08/11 15:05:26;;;;;;;2.33;1.77;;;;;;;40.55;12.18;99229.28;5092942;28;42431;-75
2022/08/11 15:07:56;;;;;;;2.28;2.08;;;;;;;40.38;12.38;99207.38;5114213;28;41651;-76
2022/08/11 15:10:26;;;;;;;2.90;1.80;;;;;;;40.31;12.33;99217.13;5096102;28;41792;-75
2022/08/11 15:12:54;;;;;;;1.80;1.70;;;;;;;39.84;12.81;99201.56;5114227;28;43473;-78
2022/08/11 15:18:12;;;;;;;2.42;1.88;;;;;;;39.16;13.41;99214.81;5078543;28;40320;-78
2022/08/11 15:26:16;;;;;;;2.10;1.80;;;;;;;38.47;13.52;99179.03;5092730;28;43120;-78
2022/08/11 15:37:26;;;;;;;3.13;1.90;;;;;;;37.74;14.35;99166.94;5077946;28;41155;-77
2022/08/11 15:45:48;;;;;;;4.17;1.70;;;;;;;36.81;14.77;99168.22;5090974;28;42757;-77
2022/08/11 15:48:28;;;;;;;1.80;1.70;;;;;;;36.71;14.94;99165.34;5094680;28;41514;-77
2022/08/11 15:51:02;;;;;;;2.27;1.93;;;;;;;36.58;14.77;99159.09;5078240;28;38977;-75
2022/08/11 15:53:34;;;;;;;2.23;1.47;;;;;;;36.43;14.72;99145.09;5078330;28;41985;-77
2022/08/11 15:56:03;;;;;;;2.07;1.87;;;;;;;36.33;15.18;99147.72;5078012;28;41680;-79
2022/08/11 16:04:15;;;;;;;1.93;1.73;;;;;;;35.71;15.76;99109.28;5095280;28;43342;-77
2022/08/11 16:06:50;;;;;;;4.70;2.17;;;;;;;35.81;15.42;99142.56;5094864;28;44464;-79
2022/08/11 16:09:22;;;;;;;1.70;1.60;;;;;;;35.51;15.63;99126.31;5078218;28;42068;-78
2022/08/11 16:11:53;;;;;;;1.50;1.40;;;;;;;35.49;16.02;99127.66;5077955;28;39099;-77
2022/08/11 16:17:11;;;;;;;4.30;1.90;;;;;;;35.29;16.37;99123.50;5092818;28;43698;-77
2022/08/11 16:19:42;;;;;;;1.60;1.50;;;;;;;35.15;16.26;99133.13;5078446;28;42582;-78
2022/08/11 16:22:12;;;;;;;2.47;1.83;;;;;;;35.05;16.34;99135.69;5093346;28;40043;-76
2022/08/11 16:24:44;;;;;;;3.33;1.70;;;;;;;34.89;16.76;99128.22;5094326;28;43208;-76
2022/08/11 16:27:14;;;;;;;1.80;1.70;;;;;;;34.85;16.74;99127.91;5093278;28;42759;-76
2022/08/11 16:29:47;;;;;;;1.80;1.70;;;;;;;34.84;16.59;99115.22;5077688;28;42314;-77
2022/08/11 16:32:22;;;;;;;1.90;1.80;;;;;;;34.82;16.94;99119.31;5093308;28;39965;-76
2022/08/11 16:40:28;;;;;;;2.00;1.43;;;;;;;34.68;16.70;99109.63;5091650;28;42403;-75
2022/08/11 16:48:34;;;;;;;1.80;1.70;;;;;;;34.57;16.65;99103.94;5091298;28;43489;-75
2022/08/11 16:51:02;;;;;;;1.87;1.77;;;;;;;34.38;16.51;99094.19;5076910;28;42769;-77
2022/08/11 16:53:30;;;;;;;2.90;2.13;;;;;;;34.19;16.63;99089.94;5112770;28;40687;-78
2022/08/11 16:56:02;;;;;;;2.37;1.73;;;;;;;34.17;16.51;99119.56;5112565;28;41675;-77
2022/08/11 17:01:23;;;;;;;1.90;1.80;;;;;;;33.85;16.88;99109.00;5094088;28;42299;-76
2022/08/11 17:17:58;;;;;;;2.17;1.47;;;;;;;33.18;17.54;99099.31;5090912;28;41683;-77
2022/08/11 17:20:28;;;;;;;2.63;1.50;;;;;;;32.97;17.78;99080.66;5076704;28;41695;-78
2022/08/11 17:25:44;;;;;;;1.67;1.57;;;;;;;32.80;18.24;99091.47;5077032;28;38950;-77